sensor_id;sensor_type;location;lat;lon;timestamp;pressure;altitude;pressure_sealevel;temperature;humidity
62436;BME280;48480;50.252;18.848;2023-11-22T00:00:05;98879.08;;;2.28;85.23
62436;BME280;48480;50.252;18.848;2023-11-22T00:02:49;98886.84;;;2.15;84.57
62436;BME280;48480;50.252;18.848;2023-11-22T00:05:34;98887.74;;;1.99;84.43
62436;BME280;48480;50.252;18.848;2023-11-22T00:08:18;98887.68;;;1.99;85.15
62436;BME280;48480;50.252;18.848;2023-11-22T00:11:02;98890.73;;;2.07;85.50
62436;BME280;48480;50.252;18.848;2023-11-22T00:13:47;98891.33;;;2.13;85.09
62436;BME280;48480;50.252;18.848;2023-11-22T00:16:34;98897.08;;;2.17;85.26
62436;BME280;48480;50.252;18.848;2023-11-22T00:19:20;98898.70;;;2.17;85.59
62436;BME280;48480;50.252;18.848;2023-11-22T00:22:07;98900.95;;;2.18;86.07
62436;BME280;48480;50.252;18.848;2023-11-22T00:24:56;98901.58;;;2.22;86.65
62436;BME280;48480;50.252;18.848;2023-11-22T00:27:40;98894.83;;;2.20;86.81
62436;BME280;48480;50.252;18.848;2023-11-22T00:30:25;98910.36;;;2.25;86.66
62436;BME280;48480;50.252;18.848;2023-11-22T00:33:09;98913.18;;;2.27;86.68
62436;BME280;48480;50.252;18.848;2023-11-22T00:35:53;98916.05;;;2.30;86.15
62436;BME280;48480;50.252;18.848;2023-11-22T00:38:40;98918.48;;;2.34;85.99
62436;BME280;48480;50.252;18.848;2023-11-22T00:41:30;98920.58;;;2.27;85.15
62436;BME280;48480;50.252;18.848;2023-11-22T00:44:14;98921.26;;;2.10;84.87
62436;BME280;48480;50.252;18.848;2023-11-22T00:46:58;98923.21;;;1.92;84.85
62436;BME280;48480;50.252;18.848;2023-11-22T00:49:41;98928.38;;;1.72;85.01
62436;BME280;48480;50.252;18.848;2023-11-22T00:52:25;98932.12;;;1.54;85.21
62436;BME280;48480;50.252;18.848;2023-11-22T00:55:10;98930.48;;;1.50;85.94
62436;BME280;48480;50.252;18.848;2023-11-22T00:57:54;98930.61;;;1.49;86.03
62436;BME280;48480;50.252;18.848;2023-11-22T01:00:39;98932.85;;;1.50;85.98
62436;BME280;48480;50.252;18.848;2023-11-22T01:03:24;98936.82;;;1.50;86.31
62436;BME280;48480;50.252;18.848;2023-11-22T01:06:09;98939.16;;;1.51;86.67
62436;BME280;48480;50.252;18.848;2023-11-22T01:08:53;98943.27;;;1.50;86.46
62436;BME280;48480;50.252;18.848;2023-11-22T01:11:38;98942.95;;;1.42;86.34
62436;BME280;48480;50.252;18.848;2023-11-22T01:14:22;98944.23;;;1.40;86.92
62436;BME280;48480;50.252;18.848;2023-11-22T01:17:06;98946.80;;;1.41;87.35
62436;BME280;48480;50.252;18.848;2023-11-22T01:19:50;98946.38;;;1.49;87.21
62436;BME280;48480;50.252;18.848;2023-11-22T01:22:35;98947.90;;;1.61;86.73
62436;BME280;48480;50.252;18.848;2023-11-22T01:25:21;98947.42;;;1.67;86.36
62436;BME280;48480;50.252;18.848;2023-11-22T01:28:06;98944.95;;;1.69;86.58
62436;BME280;48480;50.252;18.848;2023-11-22T01:30:50;98947.77;;;1.67;86.23
62436;BME280;48480;50.252;18.848;2023-11-22T01:33:37;98949.06;;;1.61;86.32
62436;BME280;48480;50.252;18.848;2023-11-22T01:36:21;98954.53;;;1.58;86.87
62436;BME280;48480;50.252;18.848;2023-11-22T01:39:05;98955.73;;;1.56;86.80
62436;BME280;48480;50.252;18.848;2023-11-22T01:41:52;98962.25;;;1.43;85.86
62436;BME280;48480;50.252;18.848;2023-11-22T01:44:36;98960.53;;;1.41;86.52
62436;BME280;48480;50.252;18.848;2023-11-22T01:47:20;98959.64;;;1.49;86.55
62436;BME280;48480;50.252;18.848;2023-11-22T01:50:06;98961.39;;;1.56;86.22
62436;BME280;48480;50.252;18.848;2023-11-22T01:52:52;98961.19;;;1.53;86.20
62436;BME280;48480;50.252;18.848;2023-11-22T01:55:36;98959.05;;;1.52;86.75
62436;BME280;48480;50.252;18.848;2023-11-22T01:58:21;98962.54;;;1.51;86.51
62436;BME280;48480;50.252;18.848;2023-11-22T02:01:07;98968.03;;;1.47;86.11
62436;BME280;48480;50.252;18.848;2023-11-22T02:03:51;98971.11;;;1.44;86.60
62436;BME280;48480;50.252;18.848;2023-11-22T02:06:37;98968.95;;;1.45;86.48
62436;BME280;48480;50.252;18.848;2023-11-22T02:09:21;98971.66;;;1.54;86.81
62436;BME280;48480;50.252;18.848;2023-11-22T02:12:06;98971.94;;;1.63;86.41
62436;BME280;48480;50.252;18.848;2023-11-22T02:14:51;98976.48;;;1.70;86.57
62436;BME280;48480;50.252;18.848;2023-11-22T02:17:36;98981.81;;;1.73;86.34
62436;BME280;48480;50.252;18.848;2023-11-22T02:20:20;98987.22;;;1.69;86.34
62436;BME280;48480;50.252;18.848;2023-11-22T02:23:08;98994.92;;;1.64;86.53
62436;BME280;48480;50.252;18.848;2023-11-22T02:25:55;99000.96;;;1.61;86.70
62436;BME280;48480;50.252;18.848;2023-11-22T02:28:39;99002.48;;;1.60;87.11
62436;BME280;48480;50.252;18.848;2023-11-22T02:31:23;99002.89;;;1.60;86.75
62436;BME280;48480;50.252;18.848;2023-11-22T02:34:07;99004.56;;;1.66;86.38
62436;BME280;48480;50.252;18.848;2023-11-22T02:36:52;99008.64;;;1.70;84.98
62436;BME280;48480;50.252;18.848;2023-11-22T02:39:54;99008.56;;;1.65;84.54
62436;BME280;48480;50.252;18.848;2023-11-22T02:42:40;99010.63;;;1.64;85.20
62436;BME280;48480;50.252;18.848;2023-11-22T02:45:28;99013.41;;;1.63;85.35
62436;BME280;48480;50.252;18.848;2023-11-22T02:48:12;99016.73;;;1.62;85.59
62436;BME280;48480;50.252;18.848;2023-11-22T02:50:57;99022.80;;;1.61;85.76
62436;BME280;48480;50.252;18.848;2023-11-22T02:53:41;99028.85;;;1.59;85.68
62436;BME280;48480;50.252;18.848;2023-11-22T02:56:27;99028.25;;;1.58;85.86
62436;BME280;48480;50.252;18.848;2023-11-22T02:59:12;99025.02;;;1.57;85.67
62436;BME280;48480;50.252;18.848;2023-11-22T03:01:56;99032.30;;;1.60;85.22
62436;BME280;48480;50.252;18.848;2023-11-22T03:04:40;99041.03;;;1.67;85.17
62436;BME280;48480;50.252;18.848;2023-11-22T03:07:29;99047.14;;;1.73;84.57
62436;BME280;48480;50.252;18.848;2023-11-22T03:10:14;99052.02;;;1.73;84.63
62436;BME280;48480;50.252;18.848;2023-11-22T03:12:57;99056.38;;;1.70;85.15
62436;BME280;48480;50.252;18.848;2023-11-22T03:15:41;99059.42;;;1.66;85.28
62436;BME280;48480;50.252;18.848;2023-11-22T03:18:26;99061.95;;;1.62;85.10
62436;BME280;48480;50.252;18.848;2023-11-22T03:21:10;99066.77;;;1.58;84.75
62436;BME280;48480;50.252;18.848;2023-11-22T03:23:54;99075.50;;;1.48;84.15
62436;BME280;48480;50.252;18.848;2023-11-22T03:26:38;99080.70;;;1.42;84.17
62436;BME280;48480;50.252;18.848;2023-11-22T03:29:23;99083.77;;;1.41;83.68
62436;BME280;48480;50.252;18.848;2023-11-22T03:32:08;99089.23;;;1.41;83.37
62436;BME280;48480;50.252;18.848;2023-11-22T03:34:51;99092.42;;;1.42;83.78
62436;BME280;48480;50.252;18.848;2023-11-22T03:37:36;99096.60;;;1.42;84.59
62436;BME280;48480;50.252;18.848;2023-11-22T03:40:20;99103.33;;;1.42;84.94
62436;BME280;48480;50.252;18.848;2023-11-22T03:43:04;99104.75;;;1.40;85.16
62436;BME280;48480;50.252;18.848;2023-11-22T03:45:48;99112.73;;;1.36;84.68
62436;BME280;48480;50.252;18.848;2023-11-22T03:48:32;99119.67;;;1.31;85.06
62436;BME280;48480;50.252;18.848;2023-11-22T03:51:16;99127.68;;;1.29;85.54
62436;BME280;48480;50.252;18.848;2023-11-22T03:54:00;99131.55;;;1.33;85.05
62436;BME280;48480;50.252;18.848;2023-11-22T03:56:44;99132.50;;;1.39;84.84
62436;BME280;48480;50.252;18.848;2023-11-22T03:59:28;99134.39;;;1.42;84.65
62436;BME280;48480;50.252;18.848;2023-11-22T04:02:12;99141.39;;;1.40;84.71
62436;BME280;48480;50.252;18.848;2023-11-22T04:04:56;99141.83;;;1.34;84.75
62436;BME280;48480;50.252;18.848;2023-11-22T04:07:41;99148.15;;;1.30;84.41
62436;BME280;48480;50.252;18.848;2023-11-22T04:10:25;99157.36;;;1.28;85.03
62436;BME280;48480;50.252;18.848;2023-11-22T04:13:09;99163.17;;;1.22;84.94
62436;BME280;48480;50.252;18.848;2023-11-22T04:15:53;99168.95;;;1.23;85.26
62436;BME280;48480;50.252;18.848;2023-11-22T04:18:41;99172.44;;;1.28;84.95
62436;BME280;48480;50.252;18.848;2023-11-22T04:21:25;99179.66;;;1.36;84.91
62436;BME280;48480;50.252;18.848;2023-11-22T04:24:09;99183.95;;;1.46;84.87
62436;BME280;48480;50.252;18.848;2023-11-22T04:26:53;99190.20;;;1.43;84.09
62436;BME280;48480;50.252;18.848;2023-11-22T04:29:37;99196.46;;;1.32;84.41
62436;BME280;48480;50.252;18.848;2023-11-22T04:32:20;99204.66;;;1.27;84.86
62436;BME280;48480;50.252;18.848;2023-11-22T04:35:06;99211.86;;;1.19;84.79
62436;BME280;48480;50.252;18.848;2023-11-22T04:37:50;99213.02;;;1.16;85.12
62436;BME280;48480;50.252;18.848;2023-11-22T04:40:34;99219.79;;;1.11;84.77
62436;BME280;48480;50.252;18.848;2023-11-22T04:43:18;99223.86;;;1.03;84.11
62436;BME280;48480;50.252;18.848;2023-11-22T04:46:02;99230.25;;;1.03;84.63
62436;BME280;48480;50.252;18.848;2023-11-22T04:48:48;99233.23;;;1.09;85.11
62436;BME280;48480;50.252;18.848;2023-11-22T04:51:34;99235.59;;;1.22;85.37
62436;BME280;48480;50.252;18.848;2023-11-22T04:54:21;99237.27;;;1.25;84.91
62436;BME280;48480;50.252;18.848;2023-11-22T04:57:05;99240.51;;;1.24;85.04
62436;BME280;48480;50.252;18.848;2023-11-22T04:59:49;99249.55;;;1.17;84.80
62436;BME280;48480;50.252;18.848;2023-11-22T05:02:34;99258.48;;;1.08;84.85
62436;BME280;48480;50.252;18.848;2023-11-22T05:05:19;99264.16;;;1.02;85.04
62436;BME280;48480;50.252;18.848;2023-11-22T05:08:03;99267.41;;;0.98;85.12
62436;BME280;48480;50.252;18.848;2023-11-22T05:10:47;99263.87;;;0.98;84.64
62436;BME280;48480;50.252;18.848;2023-11-22T05:13:31;99264.14;;;1.01;84.54
62436;BME280;48480;50.252;18.848;2023-11-22T05:16:15;99272.02;;;1.04;84.12
62436;BME280;48480;50.252;18.848;2023-11-22T05:19:00;99275.42;;;0.99;83.78
62436;BME280;48480;50.252;18.848;2023-11-22T05:21:44;99280.10;;;0.91;83.86
62436;BME280;48480;50.252;18.848;2023-11-22T05:24:28;99288.02;;;0.86;84.26
62436;BME280;48480;50.252;18.848;2023-11-22T05:27:12;99287.36;;;0.80;84.14
62436;BME280;48480;50.252;18.848;2023-11-22T05:29:55;99286.77;;;0.76;84.43
62436;BME280;48480;50.252;18.848;2023-11-22T05:32:39;99287.61;;;0.75;84.35
62436;BME280;48480;50.252;18.848;2023-11-22T05:35:23;99289.16;;;0.75;84.02
62436;BME280;48480;50.252;18.848;2023-11-22T05:38:07;99291.48;;;0.77;83.85
62436;BME280;48480;50.252;18.848;2023-11-22T05:40:52;99300.39;;;0.81;83.57
62436;BME280;48480;50.252;18.848;2023-11-22T05:43:37;99302.59;;;0.78;83.42
62436;BME280;48480;50.252;18.848;2023-11-22T05:46:24;99305.45;;;0.72;83.57
62436;BME280;48480;50.252;18.848;2023-11-22T05:49:10;99313.33;;;0.67;84.28
62436;BME280;48480;50.252;18.848;2023-11-22T05:51:55;99316.39;;;0.60;83.59
62436;BME280;48480;50.252;18.848;2023-11-22T05:54:39;99318.30;;;0.49;83.24
62436;BME280;48480;50.252;18.848;2023-11-22T05:57:22;99318.77;;;0.45;83.34
62436;BME280;48480;50.252;18.848;2023-11-22T06:00:07;99323.08;;;0.48;83.18
62436;BME280;48480;50.252;18.848;2023-11-22T06:02:52;99328.19;;;0.50;83.25
62436;BME280;48480;50.252;18.848;2023-11-22T06:05:36;99332.84;;;0.50;83.13
62436;BME280;48480;50.252;18.848;2023-11-22T06:08:21;99343.00;;;0.42;83.33
62436;BME280;48480;50.252;18.848;2023-11-22T06:11:05;99349.84;;;0.37;83.59
62436;BME280;48480;50.252;18.848;2023-11-22T06:13:49;99353.82;;;0.32;84.03
62436;BME280;48480;50.252;18.848;2023-11-22T06:16:33;99359.48;;;0.28;84.60
62436;BME280;48480;50.252;18.848;2023-11-22T06:19:16;99357.11;;;0.28;84.53
62436;BME280;48480;50.252;18.848;2023-11-22T06:22:00;99363.20;;;0.27;84.63
62436;BME280;48480;50.252;18.848;2023-11-22T06:24:45;99375.10;;;0.32;84.40
62436;BME280;48480;50.252;18.848;2023-11-22T06:27:31;99368.05;;;0.41;84.16
62436;BME280;48480;50.252;18.848;2023-11-22T06:30:16;99364.68;;;0.50;84.11
62436;BME280;48480;50.252;18.848;2023-11-22T06:33:00;99362.86;;;0.56;83.92
62436;BME280;48480;50.252;18.848;2023-11-22T06:35:45;99377.21;;;0.62;83.65
62436;BME280;48480;50.252;18.848;2023-11-22T06:38:29;99381.63;;;0.59;83.25
62436;BME280;48480;50.252;18.848;2023-11-22T06:41:13;99382.20;;;0.50;83.04
62436;BME280;48480;50.252;18.848;2023-11-22T06:43:57;99380.89;;;0.44;83.08
62436;BME280;48480;50.252;18.848;2023-11-22T06:46:41;99377.84;;;0.36;82.90
62436;BME280;48480;50.252;18.848;2023-11-22T06:49:25;99376.79;;;0.27;82.98
62436;BME280;48480;50.252;18.848;2023-11-22T06:52:09;99382.77;;;0.29;82.72
62436;BME280;48480;50.252;18.848;2023-11-22T06:54:53;99388.92;;;0.36;83.05
62436;BME280;48480;50.252;18.848;2023-11-22T06:57:37;99391.58;;;0.49;82.84
62436;BME280;48480;50.252;18.848;2023-11-22T07:00:22;99394.98;;;0.53;81.98
62436;BME280;48480;50.252;18.848;2023-11-22T07:03:06;99392.34;;;0.50;81.77
62436;BME280;48480;50.252;18.848;2023-11-22T07:05:50;99400.07;;;0.43;81.97
62436;BME280;48480;50.252;18.848;2023-11-22T07:08:34;99398.28;;;0.40;82.64
62436;BME280;48480;50.252;18.848;2023-11-22T07:11:22;99400.42;;;0.42;82.89
62436;BME280;48480;50.252;18.848;2023-11-22T07:14:07;99411.09;;;0.39;82.62
62436;BME280;48480;50.252;18.848;2023-11-22T07:16:51;99420.75;;;0.40;83.20
62436;BME280;48480;50.252;18.848;2023-11-22T07:19:35;99427.62;;;0.42;82.74
62436;BME280;48480;50.252;18.848;2023-11-22T07:22:21;99432.02;;;0.41;81.79
62436;BME280;48480;50.252;18.848;2023-11-22T07:25:07;99437.07;;;0.37;81.42
62436;BME280;48480;50.252;18.848;2023-11-22T07:27:51;99442.23;;;0.43;81.75
62436;BME280;48480;50.252;18.848;2023-11-22T07:30:37;99441.77;;;0.55;81.65
62436;BME280;48480;50.252;18.848;2023-11-22T07:33:24;99445.69;;;0.57;81.34
62436;BME280;48480;50.252;18.848;2023-11-22T07:36:11;99455.46;;;0.53;81.48
62436;BME280;48480;50.252;18.848;2023-11-22T07:38:58;99462.80;;;0.51;81.50
62436;BME280;48480;50.252;18.848;2023-11-22T07:41:42;99470.37;;;0.43;81.16
62436;BME280;48480;50.252;18.848;2023-11-22T07:44:26;99477.55;;;0.31;80.87
62436;BME280;48480;50.252;18.848;2023-11-22T07:47:11;99475.20;;;0.25;80.44
62436;BME280;48480;50.252;18.848;2023-11-22T07:49:55;99474.67;;;0.26;80.57
62436;BME280;48480;50.252;18.848;2023-11-22T07:52:39;99468.81;;;0.23;80.16
62436;BME280;48480;50.252;18.848;2023-11-22T07:55:25;99469.86;;;0.10;79.87
62436;BME280;48480;50.252;18.848;2023-11-22T07:58:09;99465.89;;;-0.05;80.18
62436;BME280;48480;50.252;18.848;2023-11-22T08:00:54;99463.95;;;-0.11;81.26
62436;BME280;48480;50.252;18.848;2023-11-22T08:03:40;99466.88;;;-0.09;81.15
62436;BME280;48480;50.252;18.848;2023-11-22T08:06:29;99474.11;;;-0.06;80.57
62436;BME280;48480;50.252;18.848;2023-11-22T08:09:13;99483.39;;;-0.02;80.42
62436;BME280;48480;50.252;18.848;2023-11-22T08:12:00;99482.72;;;-0.04;80.28
62436;BME280;48480;50.252;18.848;2023-11-22T08:14:46;99490.02;;;-0.07;80.96
62436;BME280;48480;50.252;18.848;2023-11-22T08:17:30;99495.63;;;-0.08;80.95
62436;BME280;48480;50.252;18.848;2023-11-22T08:20:16;99483.98;;;-0.17;80.46
62436;BME280;48480;50.252;18.848;2023-11-22T08:23:03;99485.73;;;-0.15;80.92
62436;BME280;48480;50.252;18.848;2023-11-22T08:25:50;99483.98;;;-0.07;80.43
62436;BME280;48480;50.252;18.848;2023-11-22T08:28:34;99489.80;;;-0.09;80.36
62436;BME280;48480;50.252;18.848;2023-11-22T08:31:18;99498.58;;;-0.10;80.72
62436;BME280;48480;50.252;18.848;2023-11-22T08:34:04;99503.69;;;-0.12;80.91
62436;BME280;48480;50.252;18.848;2023-11-22T08:36:50;99508.95;;;-0.12;81.09
62436;BME280;48480;50.252;18.848;2023-11-22T08:39:34;99510.67;;;-0.11;81.27
62436;BME280;48480;50.252;18.848;2023-11-22T08:42:18;99512.11;;;0.00;81.22
62436;BME280;48480;50.252;18.848;2023-11-22T08:45:03;99518.70;;;0.13;80.27
62436;BME280;48480;50.252;18.848;2023-11-22T08:47:47;99520.40;;;0.17;80.57
62436;BME280;48480;50.252;18.848;2023-11-22T08:50:31;99517.34;;;0.15;80.16
62436;BME280;48480;50.252;18.848;2023-11-22T08:53:15;99516.09;;;0.11;79.90
62436;BME280;48480;50.252;18.848;2023-11-22T08:56:01;99518.64;;;-0.00;79.98
62436;BME280;48480;50.252;18.848;2023-11-22T08:58:49;99526.95;;;0.01;80.87
62436;BME280;48480;50.252;18.848;2023-11-22T09:01:33;99525.64;;;0.13;80.94
62436;BME280;48480;50.252;18.848;2023-11-22T09:04:17;99527.23;;;0.30;81.04
62436;BME280;48480;50.252;18.848;2023-11-22T09:07:03;99527.73;;;0.46;80.92
62436;BME280;48480;50.252;18.848;2023-11-22T09:09:47;99525.19;;;0.56;80.85
62436;BME280;48480;50.252;18.848;2023-11-22T09:12:31;99533.31;;;0.63;80.96
62436;BME280;48480;50.252;18.848;2023-11-22T09:15:15;99538.63;;;0.67;81.08
62436;BME280;48480;50.252;18.848;2023-11-22T09:18:07;99540.68;;;0.70;81.01
62436;BME280;48480;50.252;18.848;2023-11-22T09:20:51;99539.89;;;0.72;80.62
62436;BME280;48480;50.252;18.848;2023-11-22T09:23:36;99543.41;;;0.70;79.82
62436;BME280;48480;50.252;18.848;2023-11-22T09:26:20;99536.61;;;0.65;79.35
62436;BME280;48480;50.252;18.848;2023-11-22T09:29:04;99531.70;;;0.59;78.95
62436;BME280;48480;50.252;18.848;2023-11-22T09:31:48;99523.08;;;0.66;79.03
62436;BME280;48480;50.252;18.848;2023-11-22T09:34:35;99528.80;;;0.75;79.38
62436;BME280;48480;50.252;18.848;2023-11-22T09:37:19;99540.45;;;0.77;78.83
62436;BME280;48480;50.252;18.848;2023-11-22T09:40:03;99556.14;;;0.76;78.72
62436;BME280;48480;50.252;18.848;2023-11-22T09:42:52;99564.16;;;0.77;79.20
62436;BME280;48480;50.252;18.848;2023-11-22T09:45:37;99563.31;;;0.77;78.22
62436;BME280;48480;50.252;18.848;2023-11-22T09:48:24;99564.74;;;0.70;77.75
62436;BME280;48480;50.252;18.848;2023-11-22T09:53:59;99569.64;;;0.87;78.44
62436;BME280;48480;50.252;18.848;2023-11-22T09:56:49;99566.48;;;0.98;78.24
62436;BME280;48480;50.252;18.848;2023-11-22T09:59:39;99571.13;;;1.06;78.62
62436;BME280;48480;50.252;18.848;2023-11-22T10:02:25;99580.23;;;1.14;78.75
62436;BME280;48480;50.252;18.848;2023-11-22T10:05:11;99589.42;;;1.17;78.00
62436;BME280;48480;50.252;18.848;2023-11-22T10:07:55;99587.54;;;1.18;77.87
62436;BME280;48480;50.252;18.848;2023-11-22T10:10:39;99585.04;;;1.21;77.98
62436;BME280;48480;50.252;18.848;2023-11-22T10:13:23;99581.09;;;1.20;77.61
62436;BME280;48480;50.252;18.848;2023-11-22T10:16:12;99572.45;;;1.12;76.37
62436;BME280;48480;50.252;18.848;2023-11-22T10:18:58;99574.61;;;1.09;75.72
62436;BME280;48480;50.252;18.848;2023-11-22T10:21:42;99572.50;;;1.18;75.86
62436;BME280;48480;50.252;18.848;2023-11-22T10:24:33;99568.09;;;1.15;74.48
62436;BME280;48480;50.252;18.848;2023-11-22T10:27:17;99571.84;;;1.02;74.64
62436;BME280;48480;50.252;18.848;2023-11-22T10:30:02;99572.71;;;0.91;75.09
62436;BME280;48480;50.252;18.848;2023-11-22T10:32:46;99573.42;;;0.88;75.75
62436;BME280;48480;50.252;18.848;2023-11-22T10:35:30;99574.66;;;0.83;75.44
62436;BME280;48480;50.252;18.848;2023-11-22T10:38:15;99568.89;;;0.76;75.37
62436;BME280;48480;50.252;18.848;2023-11-22T10:40:59;99567.89;;;0.72;75.76
62436;BME280;48480;50.252;18.848;2023-11-22T10:43:47;99577.03;;;0.75;75.76
62436;BME280;48480;50.252;18.848;2023-11-22T10:46:31;99573.13;;;0.73;75.52
62436;BME280;48480;50.252;18.848;2023-11-22T10:49:15;99567.45;;;0.78;75.48
62436;BME280;48480;50.252;18.848;2023-11-22T10:52:00;99562.80;;;0.88;75.28
62436;BME280;48480;50.252;18.848;2023-11-22T10:54:49;99560.64;;;1.01;75.22
62436;BME280;48480;50.252;18.848;2023-11-22T10:57:45;99561.75;;;1.11;75.72
62436;BME280;48480;50.252;18.848;2023-11-22T11:00:32;99565.52;;;1.20;75.39
62436;BME280;48480;50.252;18.848;2023-11-22T11:03:20;99566.95;;;1.23;75.11
62436;BME280;48480;50.252;18.848;2023-11-22T11:06:08;99572.18;;;1.20;74.46
62436;BME280;48480;50.252;18.848;2023-11-22T11:08:59;99578.09;;;1.20;74.95
62436;BME280;48480;50.252;18.848;2023-11-22T11:11:44;99578.08;;;1.20;74.88
62436;BME280;48480;50.252;18.848;2023-11-22T11:14:28;99584.93;;;1.16;74.37
62436;BME280;48480;50.252;18.848;2023-11-22T11:17:13;99596.05;;;1.15;74.63
62436;BME280;48480;50.252;18.848;2023-11-22T11:19:58;99602.48;;;1.17;74.97
62436;BME280;48480;50.252;18.848;2023-11-22T11:22:43;99605.21;;;1.20;75.07
62436;BME280;48480;50.252;18.848;2023-11-22T11:25:27;99612.73;;;1.31;74.23
62436;BME280;48480;50.252;18.848;2023-11-22T11:28:12;99615.45;;;1.34;73.84
62436;BME280;48480;50.252;18.848;2023-11-22T11:30:56;99615.48;;;1.40;73.72
62436;BME280;48480;50.252;18.848;2023-11-22T11:36:37;99619.40;;;1.42;74.09
62436;BME280;48480;50.252;18.848;2023-11-22T11:39:26;99624.49;;;1.44;74.03
62436;BME280;48480;50.252;18.848;2023-11-22T11:42:15;99625.36;;;1.43;74.15
62436;BME280;48480;50.252;18.848;2023-11-22T11:47:43;99619.48;;;1.37;74.32
62436;BME280;48480;50.252;18.848;2023-11-22T11:50:30;99615.44;;;1.35;74.59
62436;BME280;48480;50.252;18.848;2023-11-22T11:53:13;99615.32;;;1.35;74.40
62436;BME280;48480;50.252;18.848;2023-11-22T11:56:02;99621.55;;;1.41;74.52
62436;BME280;48480;50.252;18.848;2023-11-22T11:58:48;99618.30;;;1.53;74.18
62436;BME280;48480;50.252;18.848;2023-11-22T12:01:36;99614.37;;;1.63;73.94
62436;BME280;48480;50.252;18.848;2023-11-22T12:04:20;99615.43;;;1.72;73.70
62436;BME280;48480;50.252;18.848;2023-11-22T12:07:08;99614.80;;;1.73;73.66
62436;BME280;48480;50.252;18.848;2023-11-22T12:09:51;99619.58;;;1.71;73.56
62436;BME280;48480;50.252;18.848;2023-11-22T12:12:36;99620.08;;;1.65;73.12
62436;BME280;48480;50.252;18.848;2023-11-22T12:15:20;99614.23;;;1.60;73.26
62436;BME280;48480;50.252;18.848;2023-11-22T12:18:04;99609.04;;;1.55;72.87
62436;BME280;48480;50.252;18.848;2023-11-22T12:20:56;99609.96;;;1.47;73.00
62436;BME280;48480;50.252;18.848;2023-11-22T12:23:42;99613.09;;;1.43;73.09
62436;BME280;48480;50.252;18.848;2023-11-22T12:26:26;99623.27;;;1.41;73.42
62436;BME280;48480;50.252;18.848;2023-11-22T12:29:13;99628.48;;;1.39;73.68
62436;BME280;48480;50.252;18.848;2023-11-22T12:31:57;99634.33;;;1.40;73.60
62436;BME280;48480;50.252;18.848;2023-11-22T12:34:41;99646.34;;;1.49;73.63
62436;BME280;48480;50.252;18.848;2023-11-22T12:37:27;99645.50;;;1.60;73.33
62436;BME280;48480;50.252;18.848;2023-11-22T12:40:12;99648.29;;;1.62;73.01
62436;BME280;48480;50.252;18.848;2023-11-22T12:42:57;99649.89;;;1.58;73.14
62436;BME280;48480;50.252;18.848;2023-11-22T12:45:42;99656.00;;;1.46;72.04
62436;BME280;48480;50.252;18.848;2023-11-22T12:48:28;99651.49;;;1.25;71.50
62436;BME280;48480;50.252;18.848;2023-11-22T12:51:17;99640.38;;;1.02;71.55
62436;BME280;48480;50.252;18.848;2023-11-22T12:54:02;99627.55;;;0.79;71.50
62436;BME280;48480;50.252;18.848;2023-11-22T12:56:47;99619.78;;;0.69;71.85
62436;BME280;48480;50.252;18.848;2023-11-22T12:59:32;99623.89;;;0.75;72.35
62436;BME280;48480;50.252;18.848;2023-11-22T13:02:17;99631.04;;;0.85;72.42
62436;BME280;48480;50.252;18.848;2023-11-22T13:05:00;99638.83;;;0.93;72.74
62436;BME280;48480;50.252;18.848;2023-11-22T13:07:44;99631.83;;;0.99;73.25
62436;BME280;48480;50.252;18.848;2023-11-22T13:10:28;99628.12;;;1.00;72.49
62436;BME280;48480;50.252;18.848;2023-11-22T13:13:13;99629.43;;;0.90;72.49
62436;BME280;48480;50.252;18.848;2023-11-22T13:15:57;99633.60;;;0.82;72.63
62436;BME280;48480;50.252;18.848;2023-11-22T13:18:42;99637.86;;;0.72;72.96
62436;BME280;48480;50.252;18.848;2023-11-22T13:21:26;99636.52;;;0.65;73.09
62436;BME280;48480;50.252;18.848;2023-11-22T13:24:10;99636.50;;;0.67;73.56
62436;BME280;48480;50.252;18.848;2023-11-22T13:26:56;99633.60;;;0.78;73.52
62436;BME280;48480;50.252;18.848;2023-11-22T13:29:40;99637.13;;;0.95;73.64
62436;BME280;48480;50.252;18.848;2023-11-22T13:32:24;99647.58;;;1.08;73.47
62436;BME280;48480;50.252;18.848;2023-11-22T13:35:09;99655.30;;;1.15;73.56
62436;BME280;48480;50.252;18.848;2023-11-22T13:38:00;99658.66;;;1.16;73.34
62436;BME280;48480;50.252;18.848;2023-11-22T13:40:45;99667.27;;;1.13;73.05
62436;BME280;48480;50.252;18.848;2023-11-22T13:43:32;99670.53;;;1.06;72.90
62436;BME280;48480;50.252;18.848;2023-11-22T13:46:19;99678.89;;;1.00;73.43
62436;BME280;48480;50.252;18.848;2023-11-22T13:49:04;99682.56;;;0.97;73.48
62436;BME280;48480;50.252;18.848;2023-11-22T13:51:47;99677.13;;;0.92;73.06
62436;BME280;48480;50.252;18.848;2023-11-22T13:54:31;99670.26;;;0.86;73.26
62436;BME280;48480;50.252;18.848;2023-11-22T13:57:18;99671.27;;;0.82;73.46
62436;BME280;48480;50.252;18.848;2023-11-22T14:00:07;99679.17;;;0.80;73.27
62436;BME280;48480;50.252;18.848;2023-11-22T14:03:03;99696.50;;;0.85;72.74
62436;BME280;48480;50.252;18.848;2023-11-22T14:05:50;99717.58;;;0.87;71.95
62436;BME280;48480;50.252;18.848;2023-11-22T14:08:35;99724.96;;;0.96;72.39
62436;BME280;48480;50.252;18.848;2023-11-22T14:11:19;99730.20;;;1.00;72.65
62436;BME280;48480;50.252;18.848;2023-11-22T14:14:03;99726.23;;;1.02;72.97
62436;BME280;48480;50.252;18.848;2023-11-22T14:16:48;99724.32;;;0.99;73.22
62436;BME280;48480;50.252;18.848;2023-11-22T14:19:32;99725.42;;;0.95;73.17
62436;BME280;48480;50.252;18.848;2023-11-22T14:22:17;99729.44;;;0.93;73.18
62436;BME280;48480;50.252;18.848;2023-11-22T14:25:02;99746.43;;;0.95;73.58
62436;BME280;48480;50.252;18.848;2023-11-22T14:27:47;99744.48;;;0.91;73.41
62436;BME280;48480;50.252;18.848;2023-11-22T14:30:36;99721.73;;;0.83;73.19
62436;BME280;48480;50.252;18.848;2023-11-22T14:33:21;99712.11;;;0.82;73.30
62436;BME280;48480;50.252;18.848;2023-11-22T14:36:05;99714.97;;;0.88;73.16
62436;BME280;48480;50.252;18.848;2023-11-22T14:38:50;99719.60;;;0.95;72.98
62436;BME280;48480;50.252;18.848;2023-11-22T14:41:38;99714.95;;;1.01;72.59